Time;durP1;ratioP1;P1;durP2;ratioP2;P2;SDS_P1;SDS_P2;PMS_P1;PMS_P2;Temp;Humidity;BMP_temperature;BMP_pressure;BME280_temperature;BME280_humidity;BME280_pressure;Samples;Min_cycle;Max_cycle;Signal;HPM_P1;HPM_P2
2022/02/18 00:00:48;;;;;;;7.03;3.10;;;281.90;1484.80;;;;;;4936055;29;20110;-57
2022/02/18 00:03:14;;;;;;;6.30;1.80;;;281.90;1484.80;;;;;;4935988;29;20086;-57
2022/02/18 00:05:41;;;;;;;7.00;2.65;;;281.90;1484.80;;;;;;4938915;29;20034;-58
2022/02/18 00:08:07;;;;;;;5.82;2.80;;;281.90;1484.80;;;;;;4937783;29;20362;-57
2022/02/18 00:10:33;;;;;;;6.97;2.95;;;281.90;1484.80;;;;;;4936873;29;20050;-57
2022/02/18 00:12:59;;;;;;;6.30;2.10;;;281.90;1484.80;;;;;;4939709;29;20028;-58
2022/02/18 00:15:26;;;;;;;6.82;2.55;;;281.90;1484.80;;;;;;4939785;29;20159;-58
2022/02/18 00:17:52;;;;;;;6.78;1.80;;;281.90;1484.80;;;;;;4939731;29;20032;-58
2022/02/18 00:20:18;;;;;;;6.15;2.30;;;281.90;1510.40;;;;;;4939417;29;20039;-57
2022/02/18 00:22:44;;;;;;;5.13;1.52;;;281.90;1510.40;;;;;;4939010;29;20031;-56
2022/02/18 00:25:10;;;;;;;5.57;1.52;;;281.90;1484.80;;;;;;4937223;29;20040;-57
2022/02/18 00:27:43;;;;;;;6.78;2.10;;;281.80;1484.80;;;;;;4939791;29;20035;-57
2022/02/18 00:30:10;;;;;;;4.45;1.38;;;281.90;1484.80;;;;;;4939732;29;20079;-57
2022/02/18 00:32:36;;;;;;;4.35;1.20;;;281.80;1484.80;;;;;;4939745;29;20035;-57
2022/02/18 00:35:02;;;;;;;3.38;1.15;;;281.80;1484.80;;;;;;4939775;29;20026;-58
2022/02/18 00:37:28;;;;;;;5.55;0.98;;;281.90;1484.80;;;;;;4939684;29;20023;-57
2022/02/18 00:39:56;;;;;;;6.40;1.30;;;281.90;1484.80;;;;;;4942711;29;20057;-57
2022/02/18 00:42:22;;;;;;;5.03;1.70;;;281.90;1484.80;;;;;;4958384;28;20466;-57
2022/02/18 00:44:48;;;;;;;6.53;1.23;;;281.90;1510.40;;;;;;4958709;29;20055;-56
2022/02/18 00:47:14;;;;;;;3.53;0.90;;;281.80;1510.40;;;;;;4958498;29;20023;-57
2022/02/18 00:49:40;;;;;;;4.68;1.52;;;281.70;1510.40;;;;;;4958065;29;20107;-57
2022/02/18 00:52:06;;;;;;;4.97;1.08;;;281.70;1510.40;;;;;;4958858;29;20031;-56
2022/02/18 00:54:32;;;;;;;5.35;1.23;;;281.70;1536.00;;;;;;4958896;29;20035;-56
2022/02/18 00:56:58;;;;;;;6.20;1.33;;;281.70;1536.00;;;;;;4958620;29;20086;-57
2022/02/18 00:59:24;;;;;;;2.90;1.30;;;281.70;1536.00;;;;;;4957065;28;20043;-57
2022/02/18 01:01:50;;;;;;;4.95;1.20;;;281.60;1536.00;;;;;;4958920;29;20106;-56
2022/02/18 01:04:16;;;;;;;5.72;1.83;;;281.60;1536.00;;;;;;4958886;29;20031;-56
2022/02/18 01:06:42;;;;;;;7.35;2.00;;;281.60;1536.00;;;;;;4958782;29;20462;-56
2022/02/18 01:09:08;;;;;;;6.70;1.73;;;281.60;1536.00;;;;;;4958496;29;20154;-57
2022/02/18 01:11:35;;;;;;;8.30;1.77;;;281.60;1536.00;;;;;;4958584;29;20484;-56
2022/02/18 01:14:01;;;;;;;6.35;1.40;;;281.60;1536.00;;;;;;4957146;29;20023;-57
2022/02/18 01:16:27;;;;;;;5.70;1.33;;;256.80;1536.00;;;;;;4958466;29;20381;-60
2022/02/18 01:18:53;;;;;;;5.75;1.38;;;256.70;1536.00;;;;;;4958235;29;20032;-60
2022/02/18 01:21:20;;;;;;;7.25;1.77;;;256.60;1536.00;;;;;;4957644;28;20023;-57
2022/02/18 01:23:46;;;;;;;7.43;1.67;;;256.50;1536.00;;;;;;4958088;29;20421;-56
2022/02/18 01:26:12;;;;;;;5.80;1.52;;;256.40;1536.00;;;;;;4957739;29;20117;-56
2022/02/18 01:28:37;;;;;;;5.90;1.60;;;256.30;1536.00;;;;;;4957898;29;20051;-57
2022/02/18 01:31:03;;;;;;;6.10;1.42;;;256.30;1536.00;;;;;;4956237;29;20410;-57
2022/02/18 01:33:29;;;;;;;6.03;1.33;;;256.30;1536.00;;;;;;4957836;29;20461;-56
2022/02/18 01:35:55;;;;;;;4.88;1.10;;;256.20;1536.00;;;;;;4957622;29;20071;-56
2022/02/18 01:38:21;;;;;;;6.07;1.55;;;256.20;1561.60;;;;;;4957674;29;20386;-56
2022/02/18 01:40:46;;;;;;;4.40;1.55;;;256.10;1561.60;;;;;;4957504;28;20023;-57
2022/02/18 01:43:12;;;;;;;4.70;1.42;;;256.10;1561.60;;;;;;4957637;29;20024;-56
2022/02/18 01:45:38;;;;;;;6.05;1.60;;;256.00;1561.60;;;;;;4957427;29;20036;-56
2022/02/18 01:48:04;;;;;;;3.20;1.00;;;256.00;1561.60;;;;;;4955532;29;20119;-56
2022/02/18 01:50:30;;;;;;;3.80;1.42;;;256.00;1561.60;;;;;;4956950;29;20080;-56
2022/02/18 01:52:56;;;;;;;2.97;1.02;;;256.00;1587.20;;;;;;4957629;29;20382;-58
2022/02/18 01:55:23;;;;;;;5.05;0.95;;;256.00;1587.20;;;;;;4957593;29;20030;-57
2022/02/18 01:57:56;;;;;;;3.20;0.80;;;256.00;1587.20;;;;;;4957068;29;20027;-61
2022/02/18 02:00:25;;;;;;;6.75;1.02;;;231.30;1587.20;;;;;;4938338;29;20083;-57
2022/02/18 02:02:53;;;;;;;4.63;1.15;;;231.30;1587.20;;;;;;4955593;29;20474;-57
2022/02/18 02:05:20;;;;;;;6.57;1.10;;;231.20;1587.20;;;;;;4956919;29;20027;-56
2022/02/18 02:07:46;;;;;;;4.30;1.30;;;231.20;1587.20;;;;;;4957022;29;20027;-56
2022/02/18 02:10:13;;;;;;;5.60;1.30;;;231.20;1587.20;;;;;;4956932;29;20055;-57
2022/02/18 02:12:48;;;;;;;6.63;1.55;;;231.20;1587.20;;;;;;4956877;28;20058;-56
2022/02/18 02:15:13;;;;;;;4.77;1.50;;;231.10;1587.20;;;;;;4957145;29;20114;-58
2022/02/18 02:17:39;;;;;;;4.57;1.20;;;231.10;1612.80;;;;;;4956930;29;20462;-56
2022/02/18 02:20:07;;;;;;;4.50;1.20;;;231.10;1612.80;;;;;;4941792;29;20044;-57
2022/02/18 02:22:33;;;;;;;6.03;1.58;;;231.00;1612.80;;;;;;4952445;29;20024;-58
2022/02/18 02:24:59;;;;;;;7.13;2.50;;;231.00;1612.80;;;;;;4937903;29;20032;-57
2022/02/18 02:27:25;;;;;;;6.65;2.60;;;231.00;1612.80;;;;;;4937680;29;20366;-56
2022/02/18 02:29:52;;;;;;;4.30;1.70;;;231.00;1638.40;;;;;;4937471;29;20470;-57
2022/02/18 02:32:18;;;;;;;7.53;1.20;;;231.00;1638.40;;;;;;4937468;29;20115;-57
2022/02/18 02:34:44;;;;;;;4.35;1.10;;;230.90;1638.40;;;;;;4936672;29;20036;-56
2022/02/18 02:37:11;;;;;;;5.20;1.33;;;230.90;1638.40;;;;;;4936208;29;20039;-56
2022/02/18 02:39:37;;;;;;;3.97;1.08;;;230.90;1638.40;;;;;;4937541;29;20050;-56
2022/02/18 02:42:05;;;;;;;3.58;1.17;;;230.80;1664.00;;;;;;4937367;29;20106;-56
2022/02/18 02:44:32;;;;;;;6.25;1.45;;;230.80;1638.40;;;;;;4937228;29;20151;-57
2022/02/18 02:46:58;;;;;;;4.72;1.27;;;230.80;1638.40;;;;;;4937315;29;20040;-59
2022/02/18 02:49:24;;;;;;;3.30;1.00;;;230.80;1664.00;;;;;;4937221;29;20023;-57
2022/02/18 02:51:50;;;;;;;5.10;1.23;;;230.80;1664.00;;;;;;4937185;29;20024;-57
2022/02/18 02:54:16;;;;;;;6.45;0.90;;;230.70;1664.00;;;;;;4936309;29;20102;-57
2022/02/18 02:56:43;;;;;;;4.80;1.00;;;230.70;1638.40;;;;;;4937349;29;20023;-57
2022/02/18 02:59:08;;;;;;;4.18;1.10;;;230.70;1638.40;;;;;;4951668;29;20041;-56
2022/02/18 03:01:34;;;;;;;3.53;1.27;;;230.80;1638.40;;;;;;4937103;29;20473;-56
2022/02/18 03:04:00;;;;;;;5.20;1.40;;;230.80;1638.40;;;;;;4937150;29;20048;-56
2022/02/18 03:06:26;;;;;;;5.22;1.20;;;230.80;1638.40;;;;;;4936856;29;20020;-56
2022/02/18 03:08:52;;;;;;;4.40;0.95;;;230.80;1638.40;;;;;;4937121;29;20102;-57
2022/02/18 03:11:18;;;;;;;5.35;1.20;;;230.80;1638.40;;;;;;4935605;29;20379;-56
2022/02/18 03:13:52;;;;;;;3.92;0.95;;;230.80;1638.40;;;;;;4936802;29;20039;-56
2022/02/18 03:16:19;;;;;;;4.85;1.00;;;230.70;1664.00;;;;;;4936752;29;20030;-57
2022/02/18 03:18:46;;;;;;;4.70;1.00;;;230.80;1638.40;;;;;;4936817;29;20044;-56
2022/02/18 03:21:12;;;;;;;4.32;0.95;;;230.70;1664.00;;;;;;4937061;29;20051;-56
2022/02/18 03:23:39;;;;;;;4.38;1.23;;;230.70;1664.00;;;;;;4936903;29;20083;-56
2022/02/18 03:26:07;;;;;;;4.97;1.08;;;230.70;1664.00;;;;;;4936598;29;20536;-57
2022/02/18 03:28:32;;;;;;;5.53;1.00;;;230.70;1664.00;;;;;;4949650;29;20135;-56
2022/02/18 03:30:59;;;;;;;5.32;1.02;;;230.60;1664.00;;;;;;4955770;29;20058;-59
2022/02/18 03:33:26;;;;;;;5.32;1.33;;;230.60;1689.60;;;;;;4955995;29;20023;-57
2022/02/18 03:35:51;;;;;;;6.00;1.38;;;230.60;1689.60;;;;;;4955783;29;20031;-57
2022/02/18 03:38:17;;;;;;;5.18;1.27;;;230.60;1689.60;;;;;;4955685;29;20363;-60
2022/02/18 03:40:43;;;;;;;5.57;1.00;;;230.50;1689.60;;;;;;4955506;29;20089;-57
2022/02/18 03:43:09;;;;;;;5.45;1.50;;;230.50;1715.20;;;;;;4954082;29;20031;-59
2022/02/18 03:45:35;;;;;;;4.68;1.08;;;230.50;1715.20;;;;;;4955588;29;20035;-59
2022/02/18 03:48:00;;;;;;;4.65;1.20;;;230.40;1715.20;;;;;;4955467;29;20047;-57
2022/02/18 03:50:26;;;;;;;4.93;1.30;;;230.50;1715.20;;;;;;4955772;29;20035;-58
2022/02/18 03:52:53;;;;;;;6.63;1.40;;;230.40;1740.80;;;;;;4955646;29;20031;-58
2022/02/18 03:55:19;;;;;;;4.80;1.33;;;230.40;1740.80;;;;;;4955397;29;20031;-59
2022/02/18 03:57:45;;;;;;;4.43;1.30;;;205.70;1740.80;;;;;;4954926;29;20031;-57
2022/02/18 04:00:12;;;;;;;3.65;1.00;;;205.70;1740.80;;;;;;4953248;29;20046;-62
2022/02/18 04:02:37;;;;;;;4.13;1.40;;;205.60;1740.80;;;;;;4955248;29;20082;-61
2022/02/18 04:05:04;;;;;;;5.15;1.23;;;205.60;1766.40;;;;;;4955468;29;20027;-59
2022/02/18 04:07:30;;;;;;;7.78;1.65;;;205.60;1766.40;;;;;;4955435;29;20433;-59
2022/02/18 04:09:56;;;;;;;5.40;1.50;;;205.50;1766.40;;;;;;4955271;29;20051;-57
2022/02/18 04:12:22;;;;;;;3.90;1.20;;;205.50;1766.40;;;;;;4955450;29;20094;-58
2022/02/18 04:14:48;;;;;;;6.30;1.48;;;205.50;1766.40;;;;;;4955582;29;20031;-58
2022/02/18 04:17:14;;;;;;;3.72;1.20;;;205.50;1792.00;;;;;;4953962;29;20443;-59
2022/02/18 04:19:39;;;;;;;3.35;1.38;;;205.40;1792.00;;;;;;4955292;29;20429;-60
2022/02/18 04:22:05;;;;;;;3.80;1.23;;;205.40;1792.00;;;;;;4955296;29;20500;-58
2022/02/18 04:24:31;;;;;;;6.35;1.48;;;205.40;1792.00;;;;;;4955529;29;20027;-58
2022/02/18 04:26:57;;;;;;;5.65;1.20;;;205.40;1792.00;;;;;;4954924;29;20355;-59
2022/02/18 04:29:23;;;;;;;5.85;1.20;;;205.40;1817.60;;;;;;4955237;29;20154;-60
2022/02/18 04:31:49;;;;;;;6.80;2.10;;;205.30;1817.60;;;;;;4955422;29;20031;-60
2022/02/18 04:34:15;;;;;;;6.00;2.05;;;205.30;1817.60;;;;;;4953530;29;20079;-60
2022/02/18 04:36:40;;;;;;;6.13;1.90;;;205.20;1817.60;;;;;;4955112;29;20462;-62
2022/02/18 04:39:06;;;;;;;6.50;1.67;;;205.20;1843.20;;;;;;4954983;29;20043;-61
2022/02/18 04:41:33;;;;;;;5.28;1.70;;;205.20;1843.20;;;;;;4954993;29;20024;-58
2022/02/18 04:44:02;;;;;;;6.32;1.70;;;205.10;1843.20;;;;;;4955209;29;20037;-59
2022/02/18 04:46:28;;;;;;;5.32;1.52;;;205.10;1843.20;;;;;;4955157;28;20418;-57
2022/02/18 04:48:55;;;;;;;7.28;1.58;;;205.10;1843.20;;;;;;4955308;29;20074;-58
2022/02/18 04:51:21;;;;;;;6.63;2.40;;;205.00;1868.80;;;;;;4936466;29;20119;-61
2022/02/18 04:53:47;;;;;;;7.18;1.77;;;205.00;1868.80;;;;;;4955226;29;20413;-58
2022/02/18 04:56:13;;;;;;;11.45;4.35;;;204.90;1868.80;;;;;;4954977;28;20082;-57
2022/02/18 04:58:44;;;;;;;15.55;5.88;;;204.90;1868.80;;;;;;4958201;29;20111;-57
2022/02/18 05:01:10;;;;;;;28.02;15.48;;;204.90;1868.80;;;;;;4958486;29;20027;-60
2022/02/18 05:03:36;;;;;;;16.67;7.15;;;204.90;1868.80;;;;;;4957890;29;20046;-60
2022/02/18 05:06:03;;;;;;;10.60;3.17;;;205.00;1868.80;;;;;;4957763;29;20114;-61
2022/02/18 05:08:29;;;;;;;11.82;3.35;;;205.00;1868.80;;;;;;4956500;29;20481;-57
2022/02/18 05:10:55;;;;;;;11.30;3.50;;;205.00;1894.40;;;;;;4957868;28;20058;-59
2022/02/18 05:13:20;;;;;;;10.48;3.20;;;205.00;1868.80;;;;;;4957957;29;20128;-61
2022/02/18 05:15:47;;;;;;;10.68;3.63;;;205.00;1894.40;;;;;;4958325;29;20124;-61
2022/02/18 05:18:13;;;;;;;11.55;4.00;;;204.90;1894.40;;;;;;4957953;29;20027;-59
2022/02/18 05:20:39;;;;;;;12.18;4.97;;;205.00;1894.40;;;;;;4953365;29;20174;-58
2022/02/18 05:23:04;;;;;;;10.43;4.65;;;204.90;1894.40;;;;;;4920860;29;20028;-59
2022/02/18 05:25:31;;;;;;;17.77;8.57;;;204.90;1894.40;;;;;;4936733;29;20032;-57
2022/02/18 05:27:58;;;;;;;21.35;11.65;;;179.90;1894.40;;;;;;4937470;29;20032;-57
2022/02/18 05:30:24;;;;;;;20.58;10.48;;;180.10;1920.00;;;;;;4937327;29;20031;-57
2022/02/18 05:32:49;;;;;;;33.65;19.77;;;180.10;1920.00;;;;;;4937428;29;20028;-57
2022/02/18 05:35:15;;;;;;;35.88;19.33;;;180.00;1945.60;;;;;;4937186;29;20421;-59
2022/02/18 05:37:41;;;;;;;34.90;19.25;;;180.00;1945.60;;;;;;4935073;29;20477;-58
2022/02/18 05:40:07;;;;;;;29.92;16.23;;;180.00;1945.60;;;;;;4936447;29;20050;-60
2022/02/18 05:42:33;;;;;;;34.63;18.48;;;180.00;1945.60;;;;;;4937283;29;20050;-61
2022/02/18 05:44:59;;;;;;;28.55;16.42;;;179.90;1971.20;;;;;;4937297;29;20111;-59
2022/02/18 05:47:24;;;;;;;31.20;17.35;;;179.90;1971.20;;;;;;4936852;29;20378;-59
2022/02/18 05:49:50;;;;;;;43.08;22.73;;;179.90;1971.20;;;;;;4937338;29;20471;-57
2022/02/18 05:52:16;;;;;;;31.83;16.58;;;179.90;1971.20;;;;;;4937081;29;20035;-56
2022/02/18 05:54:42;;;;;;;30.63;15.82;;;179.80;1996.80;;;;;;4919391;29;20073;-58
2022/02/18 05:57:08;;;;;;;17.08;8.60;;;179.70;1971.20;;;;;;4937232;29;20028;-61
2022/02/18 05:59:33;;;;;;;14.02;5.63;;;179.60;1971.20;;;;;;4937947;29;20166;-58
2022/02/18 06:01:59;;;;;;;6.97;2.97;;;179.40;1996.80;;;;;;4936966;29;20534;-58
2022/02/18 06:04:25;;;;;;;8.07;3.90;;;154.50;1996.80;;;;;;4937513;29;20031;-59
2022/02/18 06:06:51;;;;;;;7.82;3.72;;;154.30;2048.00;;;;;;4937078;29;20031;-57
2022/02/18 06:09:16;;;;;;;12.27;4.50;;;154.30;2048.00;;;;;;4935794;29;20036;-60
2022/02/18 06:11:42;;;;;;;12.15;6.45;;;154.30;2073.60;;;;;;4936725;29;20027;-58
2022/02/18 06:14:08;;;;;;;29.88;14.35;;;154.50;2048.00;;;;;;4937952;29;20027;-58
2022/02/18 06:16:34;;;;;;;35.53;18.45;;;179.50;2048.00;;;;;;4937398;29;20647;-56
2022/02/18 06:19:03;;;;;;;25.88;12.50;;;180.10;1996.80;;;;;;4936634;29;20040;-59
2022/02/18 06:21:29;;;;;;;19.42;9.27;;;205.30;1971.20;;;;;;4936775;29;20032;-58
2022/02/18 06:23:55;;;;;;;17.80;8.15;;;230.50;1920.00;;;;;;4937551;29;20038;-61
2022/02/18 06:26:20;;;;;;;24.33;12.38;;;231.20;1817.60;;;;;;4937923;29;20024;-62
2022/02/18 06:28:46;;;;;;;24.85;12.48;;;256.30;1766.40;;;;;;4956778;29;20062;-65
2022/02/18 06:31:12;;;;;;;44.10;24.38;;;281.70;1740.80;;;;;;4956368;29;20114;-61
2022/02/18 06:33:38;;;;;;;106.95;51.88;;;282.50;1638.40;;;;;;4950813;28;20027;-57
2022/02/18 06:36:04;;;;;;;22.98;12.10;;;282.50;1638.40;;;;;;4937848;29;20448;-57
2022/02/18 06:38:30;;;;;;;13.70;6.10;;;282.40;1638.40;;;;;;4945592;28;20098;-62
2022/02/18 06:40:56;;;;;;;13.65;7.93;;;307.50;1612.80;;;;;;4952566;29;20393;-58
2022/02/18 06:43:22;;;;;;;11.27;6.68;;;333.30;1536.00;;;;;;4921136;29;20048;-62
2022/02/18 06:45:47;;;;;;;9.70;4.70;;;358.70;1433.60;;;;;;4947025;29;20082;-60
2022/02/18 06:48:13;;;;;;;10.40;4.82;;;384.10;1356.80;;;;;;4917248;29;20398;-59
2022/02/18 06:50:40;;;;;;;9.00;4.32;;;410.00;1280.00;;;;;;4918447;29;20039;-58
2022/02/18 06:53:07;;;;;;;52.83;33.50;;;435.50;1203.20;;;;;;4935923;29;20015;-60
2022/02/18 06:55:33;;;;;;;36.60;26.02;;;436.10;1152.00;;;;;;4935834;29;20015;-58
2022/02/18 06:58:01;;;;;;;24.98;17.45;;;461.10;1126.40;;;;;;4935932;29;20043;-59
2022/02/18 07:00:28;;;;;;;85.50;60.97;;;461.50;1100.80;;;;;;4935384;29;20401;-63
2022/02/18 07:02:53;;;;;;;34.92;23.63;;;486.70;1049.60;;;;;;4935686;29;20458;-63
2022/02/18 07:05:19;;;;;;;40.80;29.70;;;487.20;1024.00;;;;;;4935328;29;20086;-65
2022/02/18 07:07:45;;;;;;;30.80;23.42;;;487.00;1049.60;;;;;;4935405;29;20066;-64
2022/02/18 07:10:13;;;;;;;16.45;12.13;;;487.00;1049.60;;;;;;4935404;29;20121;-58
2022/02/18 07:12:39;;;;;;;9.07;6.05;;;461.70;1075.20;;;;;;4936543;29;20031;-60
2022/02/18 07:15:06;;;;;;;19.35;11.63;;;461.50;1100.80;;;;;;4936764;29;20147;-58
2022/02/18 07:17:33;;;;;;;10.13;5.95;;;436.10;1126.40;;;;;;4934850;29;20023;-59
2022/02/18 07:20:01;;;;;;;8.63;3.90;;;410.50;1203.20;;;;;;4934969;29;20544;-59
2022/02/18 07:22:27;;;;;;;11.00;6.53;;;410.10;1254.40;;;;;;4935709;29;20040;-57
2022/02/18 07:24:53;;;;;;;8.35;3.95;;;410.10;1228.80;;;;;;4935165;29;20056;-57
2022/02/18 07:27:20;;;;;;;10.18;5.25;;;435.20;1203.20;;;;;;4935277;29;20027;-59
2022/02/18 07:29:46;;;;;;;11.75;5.72;;;461.00;1126.40;;;;;;4918367;29;20031;-59
2022/02/18 07:32:13;;;;;;;9.00;5.28;;;486.90;1049.60;;;;;;4934919;29;20110;-59
2022/02/18 07:34:39;;;;;;;8.77;3.95;;;512.30;972.80;;;;;;4938772;29;20031;-56
2022/02/18 07:37:05;;;;;;;8.07;3.10;;;537.80;947.20;;;;;;4944631;29;20111;-60
2022/02/18 07:39:31;;;;;;;17.00;8.02;;;538.10;921.60;;;;;;4935172;29;20075;-59
2022/02/18 07:41:57;;;;;;;16.90;8.73;;;563.60;896.00;;;;;;4935359;29;20513;-59
2022/02/18 07:44:23;;;;;;;12.02;6.07;;;563.40;896.00;;;;;;4935484;29;20040;-60
2022/02/18 07:46:48;;;;;;;8.43;3.33;;;563.60;896.00;;;;;;4935677;29;20466;-58
2022/02/18 07:49:17;;;;;;;9.02;4.47;;;563.50;896.00;;;;;;4936100;29;20063;-59
2022/02/18 07:51:43;;;;;;;6.90;3.15;;;588.80;844.80;;;;;;4944418;29;20028;-58
2022/02/18 07:54:09;;;;;;;7.20;3.58;;;564.00;844.80;;;;;;4936433;29;20800;-58
2022/02/18 07:56:35;;;;;;;14.52;8.13;;;563.90;870.40;;;;;;4936317;29;20024;-58
2022/02/18 07:59:01;;;;;;;14.40;8.60;;;588.90;844.80;;;;;;4935804;29;20497;-59
2022/02/18 08:01:27;;;;;;;11.60;7.07;;;589.70;793.60;;;;;;4936395;29;20020;-58
2022/02/18 08:03:53;;;;;;;8.05;4.60;;;615.30;742.40;;;;;;4935978;29;20043;-59
2022/02/18 08:06:19;;;;;;;6.18;3.47;;;640.80;742.40;;;;;;4936091;29;20032;-58
2022/02/18 08:08:46;;;;;;;10.52;5.20;;;666.00;742.40;;;;;;4949276;29;20027;-58
2022/02/18 08:11:13;;;;;;;9.40;6.50;;;665.90;716.80;;;;;;4954932;29;20055;-58
2022/02/18 08:13:39;;;;;;;12.57;9.52;;;666.40;716.80;;;;;;4954651;29;20390;-57
2022/02/18 08:16:05;;;;;;;5.75;3.55;;;691.20;691.20;;;;;;4954941;29;20027;-59
2022/02/18 08:18:31;;;;;;;7.47;4.22;;;666.40;691.20;;;;;;4955040;29;20041;-59
2022/02/18 08:20:57;;;;;;;10.07;5.20;;;666.40;691.20;;;;;;4937421;29;20115;-59
2022/02/18 08:23:23;;;;;;;19.55;17.45;;;691.60;665.60;;;;;;4940631;29;20027;-59
2022/02/18 08:25:48;;;;;;;30.05;23.85;;;717.30;640.00;;;;;;4935504;29;20027;-59
2022/02/18 08:28:15;;;;;;;10.43;6.57;;;742.40;640.00;;;;;;4935420;29;20035;-59
2022/02/18 08:30:40;;;;;;;14.13;11.20;;;717.40;640.00;;;;;;4935722;29;20509;-59
2022/02/18 08:33:06;;;;;;;13.68;10.32;;;717.60;614.40;;;;;;4938467;29;20032;-58
2022/02/18 08:35:32;;;;;;;12.00;8.60;;;717.70;614.40;;;;;;4939272;29;20529;-58
2022/02/18 08:37:58;;;;;;;7.25;4.40;;;742.60;614.40;;;;;;4938662;29;20024;-58
2022/02/18 08:40:24;;;;;;;8.20;5.60;;;743.20;588.80;;;;;;4936981;29;20043;-56
2022/02/18 08:42:51;;;;;;;13.32;7.70;;;743.30;614.40;;;;;;4942741;29;20023;-57
2022/02/18 08:45:18;;;;;;;10.60;6.50;;;768.90;563.20;;;;;;4958751;29;20040;-56
2022/02/18 08:47:45;;;;;;;8.82;6.57;;;793.60;563.20;;;;;;4945754;28;20028;-56
2022/02/18 08:50:11;;;;;;;6.70;4.90;;;768.80;563.20;;;;;;4939036;29;20034;-57
2022/02/18 08:52:38;;;;;;;9.93;4.95;;;768.70;563.20;;;;;;4939218;29;20028;-56
2022/02/18 08:55:06;;;;;;;8.20;5.30;;;794.00;563.20;;;;;;4939367;29;20028;-56
2022/02/18 08:57:32;;;;;;;7.55;4.00;;;794.00;563.20;;;;;;4939209;29;20035;-56
2022/02/18 08:59:58;;;;;;;9.20;6.65;;;793.90;563.20;;;;;;4938137;29;20114;-56
2022/02/18 09:02:27;;;;;;;7.05;3.83;;;794.40;537.60;;;;;;4939330;29;20107;-56
2022/02/18 09:04:54;;;;;;;7.93;4.82;;;794.40;537.60;;;;;;4939072;29;20031;-56
2022/02/18 09:07:21;;;;;;;7.00;3.75;;;819.20;537.60;;;;;;4938821;29;20035;-56
2022/02/18 09:09:47;;;;;;;8.60;5.05;;;794.20;537.60;;;;;;4938925;29;20126;-56
2022/02/18 09:12:13;;;;;;;9.02;4.65;;;819.40;537.60;;;;;;4937629;29;20036;-56
2022/02/18 09:14:39;;;;;;;14.18;7.45;;;819.70;512.00;;;;;;4937847;29;20443;-56
2022/02/18 09:17:05;;;;;;;6.15;3.60;;;844.80;512.00;;;;;;4955303;29;20055;-56
2022/02/18 09:19:31;;;;;;;11.07;7.75;;;845.10;486.40;;;;;;4940747;29;20043;-56
2022/02/18 09:21:57;;;;;;;8.25;6.05;;;845.30;486.40;;;;;;4957851;29;20027;-56
2022/02/18 09:24:22;;;;;;;5.53;3.88;;;870.60;460.80;;;;;;4956592;29;20545;-56
2022/02/18 09:26:48;;;;;;;6.75;3.17;;;871.00;435.20;;;;;;4957967;28;20055;-56
2022/02/18 09:29:16;;;;;;;11.85;7.60;;;870.60;435.20;;;;;;4940051;29;20047;-56
2022/02/18 09:31:42;;;;;;;12.43;9.02;;;871.20;409.60;;;;;;4957785;29;20086;-56
2022/02/18 09:34:09;;;;;;;14.68;7.65;;;896.50;384.00;;;;;;4956100;29;20118;-56
2022/02/18 09:36:34;;;;;;;10.73;6.38;;;871.20;409.60;;;;;;4957896;29;20023;-57
2022/02/18 09:39:00;;;;;;;9.20;5.28;;;896.50;384.00;;;;;;4935849;29;20027;-56
2022/02/18 09:41:26;;;;;;;7.53;5.00;;;896.00;384.00;;;;;;4938083;29;20046;-57
2022/02/18 09:43:53;;;;;;;5.15;2.67;;;896.80;358.40;;;;;;4938180;29;20032;-56
2022/02/18 09:46:21;;;;;;;6.95;4.35;;;921.90;358.40;;;;;;4938374;29;20031;-56
2022/02/18 09:48:47;;;;;;;23.42;18.65;;;896.40;358.40;;;;;;4937879;29;20508;-56
2022/02/18 09:51:15;;;;;;;13.77;11.30;;;896.20;358.40;;;;;;4937266;29;20032;-57
2022/02/18 09:53:43;;;;;;;11.77;8.45;;;896.10;384.00;;;;;;4934965;29;20127;-56
2022/02/18 09:56:09;;;;;;;5.47;2.70;;;921.90;358.40;;;;;;4936341;29;20111;-56
2022/02/18 09:58:36;;;;;;;6.25;4.03;;;947.30;332.80;;;;;;4916944;29;20048;-58
2022/02/18 10:01:03;;;;;;;6.35;3.70;;;896.50;358.40;;;;;;4933403;29;20565;-57
2022/02/18 10:03:28;;;;;;;6.78;4.72;;;896.40;358.40;;;;;;4935620;29;20039;-57
2022/02/18 10:05:54;;;;;;;5.50;3.90;;;896.00;384.00;;;;;;4918722;29;20032;-57
2022/02/18 10:08:22;;;;;;;4.65;2.00;;;921.60;358.40;;;;;;4922484;29;20052;-56
2022/02/18 10:11:05;;;;;;;6.25;3.67;;;921.70;358.40;;;;;;4936263;29;20054;-56
2022/02/18 10:13:42;;;;;;;6.43;3.90;;;947.30;332.80;;;;;;4934071;29;20023;-56
2022/02/18 10:16:25;;;;;;;6.97;3.63;;;922.20;358.40;;;;;;4934475;29;20028;-56
2022/02/18 10:18:56;;;;;;;8.10;3.65;;;947.40;332.80;;;;;;4934815;29;20027;-56
2022/02/18 10:21:24;;;;;;;11.57;7.00;;;922.20;358.40;;;;;;4933123;29;20098;-56
2022/02/18 10:23:51;;;;;;;9.48;6.13;;;921.90;358.40;;;;;;4935779;29;20482;-57
2022/02/18 10:26:37;;;;;;;17.92;13.48;;;871.30;358.40;;;;;;4935874;29;20079;-57
2022/02/18 10:29:03;;;;;;;7.25;4.25;;;896.70;358.40;;;;;;4934694;29;20035;-56
2022/02/18 10:31:29;;;;;;;5.93;3.80;;;896.00;384.00;;;;;;4936095;29;20028;-56
2022/02/18 10:34:02;;;;;;;14.35;10.98;;;871.30;384.00;;;;;;4935757;29;20110;-56
2022/02/18 10:36:42;;;;;;;5.65;2.55;;;896.60;384.00;;;;;;4937471;29;20062;-56
2022/02/18 10:39:30;;;;;;;6.75;4.53;;;871.30;384.00;;;;;;4945384;29;20027;-56
2022/02/18 10:41:59;;;;;;;8.20;4.93;;;896.60;358.40;;;;;;4928827;29;20028;-56
2022/02/18 10:44:27;;;;;;;8.20;5.55;;;921.70;358.40;;;;;;4943362;29;20429;-58
2022/02/18 10:46:55;;;;;;;16.98;12.15;;;921.70;358.40;;;;;;4955296;29;20031;-56
2022/02/18 10:49:26;;;;;;;8.90;6.05;;;921.60;384.00;;;;;;4952953;29;20046;-57
2022/02/18 10:51:53;;;;;;;7.55;5.05;;;896.10;384.00;;;;;;4936029;29;20130;-56
2022/02/18 10:54:32;;;;;;;5.35;2.70;;;896.90;358.40;;;;;;4931311;29;20046;-57
2022/02/18 10:57:30;;;;;;;6.30;2.97;;;896.70;358.40;;;;;;4937537;29;20030;-56
2022/02/18 10:59:56;;;;;;;5.93;2.92;;;870.90;384.00;;;;;;4875880;29;20217;-57
2022/02/18 11:02:45;;;;;;;5.63;2.42;;;870.70;409.60;;;;;;4874269;29;20069;-56
2022/02/18 11:05:29;;;;;;;5.57;2.60;;;845.30;435.20;;;;;;4875391;29;20046;-56
2022/02/18 11:07:56;;;;;;;9.45;5.10;;;870.50;409.60;;;;;;4859170;29;20391;-57
2022/02/18 11:10:28;;;;;;;18.05;13.05;;;819.90;409.60;;;;;;4863705;29;20061;-56
2022/02/18 11:12:56;;;;;;;8.88;5.50;;;819.90;435.20;;;;;;4873540;29;20068;-56
2022/02/18 11:15:22;;;;;;;7.47;4.82;;;820.00;435.20;;;;;;4876329;29;20045;-57
2022/02/18 11:17:51;;;;;;;13.45;10.40;;;845.30;435.20;;;;;;4877556;29;20041;-56
2022/02/18 11:20:18;;;;;;;5.57;3.40;;;845.30;435.20;;;;;;4878026;29;20084;-57
2022/02/18 11:22:44;;;;;;;13.63;9.18;;;845.50;409.60;;;;;;4877902;29;20116;-56
2022/02/18 11:25:13;;;;;;;6.15;3.70;;;845.30;409.60;;;;;;4877501;29;20032;-56
2022/02/18 11:27:39;;;;;;;9.95;5.00;;;844.80;460.80;;;;;;4869523;29;20022;-56
2022/02/18 11:30:06;;;;;;;11.75;6.32;;;819.80;435.20;;;;;;4859174;29;20049;-56
2022/02/18 11:33:07;;;;;;;6.60;3.78;;;870.40;409.60;;;;;;4873673;29;20567;-56
2022/02/18 11:35:36;;;;;;;9.02;5.38;;;870.60;409.60;;;;;;4908266;29;20047;-56
2022/02/18 11:38:31;;;;;;;6.80;3.60;;;819.50;435.20;;;;;;4919276;29;20024;-55
2022/02/18 11:41:21;;;;;;;7.30;3.20;;;844.90;435.20;;;;;;4906354;29;20043;-55
2022/02/18 11:43:48;;;;;;;17.33;13.60;;;820.00;409.60;;;;;;4930914;29;20032;-55
2022/02/18 11:46:25;;;;;;;19.13;13.05;;;820.10;409.60;;;;;;4921299;29;20024;-57
2022/02/18 11:48:59;;;;;;;10.68;7.35;;;794.30;460.80;;;;;;4933461;29;20028;-55
2022/02/18 11:51:44;;;;;;;10.23;4.35;;;819.20;435.20;;;;;;4931449;29;20032;-55
2022/02/18 11:54:29;;;;;;;13.70;9.00;;;794.20;460.80;;;;;;4934960;29;20474;-57
2022/02/18 11:57:00;;;;;;;6.13;3.22;;;819.30;435.20;;;;;;4934294;29;20161;-56
2022/02/18 11:59:57;;;;;;;7.40;3.72;;;793.60;486.40;;;;;;4934880;29;20020;-56
2022/02/18 12:02:49;;;;;;;7.18;3.45;;;768.60;460.80;;;;;;4931011;29;20119;-56
2022/02/18 12:05:17;;;;;;;9.05;5.70;;;768.80;460.80;;;;;;4916998;29;20027;-56
2022/02/18 12:07:47;;;;;;;26.05;18.88;;;794.40;460.80;;;;;;4939034;29;20094;-56
2022/02/18 12:10:24;;;;;;;7.85;4.80;;;794.10;460.80;;;;;;4926418;29;20067;-56
2022/02/18 12:12:51;;;;;;;7.30;4.20;;;794.40;486.40;;;;;;4936806;29;20023;-58
2022/02/18 12:15:24;;;;;;;7.00;3.00;;;793.90;460.80;;;;;;4921940;29;20044;-56
2022/02/18 12:18:03;;;;;;;8.60;5.95;;;794.10;460.80;;;;;;4933905;29;20027;-56